sensor_id;sensor_type;location;lat;lon;timestamp;pressure;altitude;pressure_sealevel;temperature;humidity
6024;BME280;3040;42.654;23.296;2023-06-04T00:00:15;94403.97;;;19.16;84.97
6024;BME280;3040;42.654;23.296;2023-06-04T00:02:42;94395.47;;;19.18;84.92
6024;BME280;3040;42.654;23.296;2023-06-04T00:05:10;94378.53;;;19.03;85.04
6024;BME280;3040;42.654;23.296;2023-06-04T00:07:37;94398.19;;;19.10;84.56
6024;BME280;3040;42.654;23.296;2023-06-04T00:10:04;94410.88;;;19.06;85.94
6024;BME280;3040;42.654;23.296;2023-06-04T00:12:31;94381.63;;;19.01;85.47
6024;BME280;3040;42.654;23.296;2023-06-04T00:14:58;94394.69;;;19.21;85.47
6024;BME280;3040;42.654;23.296;2023-06-04T00:17:25;94398.53;;;19.27;85.11
6024;BME280;3040;42.654;23.296;2023-06-04T00:19:52;94141.22;;;17.63;83.59
6024;BME280;3040;42.654;23.296;2023-06-04T00:22:20;94280.81;;;18.60;84.38
6024;BME280;3040;42.654;23.296;2023-06-04T00:24:47;94392.75;;;19.32;84.61
6024;BME280;3040;42.654;23.296;2023-06-04T00:27:14;94387.38;;;19.28;84.72
6024;BME280;3040;42.654;23.296;2023-06-04T00:29:41;94395.06;;;19.30;84.63
6024;BME280;3040;42.654;23.296;2023-06-04T00:32:08;94392.38;;;19.33;84.12
6024;BME280;3040;42.654;23.296;2023-06-04T00:34:35;94386.97;;;19.30;84.80
6024;BME280;3040;42.654;23.296;2023-06-04T00:37:01;94384.66;;;19.25;84.86
6024;BME280;3040;42.654;23.296;2023-06-04T00:39:30;94385.88;;;19.02;85.15
6024;BME280;3040;42.654;23.296;2023-06-04T00:41:56;94386.66;;;18.92;85.63
6024;BME280;3040;42.654;23.296;2023-06-04T00:44:23;94393.19;;;18.98;85.18
6024;BME280;3040;42.654;23.296;2023-06-04T00:46:51;94353.94;;;18.80;85.50
6024;BME280;3040;42.654;23.296;2023-06-04T00:49:19;94321.59;;;18.55;85.83
6024;BME280;3040;42.654;23.296;2023-06-04T00:51:45;94332.75;;;18.71;85.66
6024;BME280;3040;42.654;23.296;2023-06-04T00:54:12;94230.00;;;18.09;85.40
6024;BME280;3040;42.654;23.296;2023-06-04T00:56:42;94387.78;;;19.13;86.09
6024;BME280;3040;42.654;23.296;2023-06-04T00:59:10;94372.38;;;19.17;86.17
6024;BME280;3040;42.654;23.296;2023-06-04T01:01:42;94352.34;;;19.10;86.23
6024;BME280;3040;42.654;23.296;2023-06-04T01:04:16;94384.66;;;19.25;85.63
6024;BME280;3040;42.654;23.296;2023-06-04T01:06:45;94380.03;;;19.25;86.07
6024;BME280;3040;42.654;23.296;2023-06-04T01:09:14;94379.28;;;19.25;86.09
6024;BME280;3040;42.654;23.296;2023-06-04T01:11:43;94384.69;;;19.28;85.87
6024;BME280;3040;42.654;23.296;2023-06-04T01:14:10;94381.94;;;19.35;85.71
6024;BME280;3040;42.654;23.296;2023-06-04T01:16:41;94354.63;;;19.19;85.29
6024;BME280;3040;42.654;23.296;2023-06-04T01:19:20;94383.09;;;19.45;84.92
6024;BME280;3040;42.654;23.296;2023-06-04T01:21:52;94296.16;;;18.91;84.35
6024;BME280;3040;42.654;23.296;2023-06-04T01:24:21;94350.81;;;19.17;84.31
6024;BME280;3040;42.654;23.296;2023-06-04T01:26:54;94386.94;;;19.44;84.58
6024;BME280;3040;42.654;23.296;2023-06-04T01:29:22;94384.63;;;19.42;83.83
6024;BME280;3040;42.654;23.296;2023-06-04T01:31:49;94393.13;;;19.48;82.86
6024;BME280;3040;42.654;23.296;2023-06-04T01:34:18;94388.13;;;19.50;82.87
6024;BME280;3040;42.654;23.296;2023-06-04T01:36:45;94393.13;;;19.52;82.65
6024;BME280;3040;42.654;23.296;2023-06-04T01:39:12;94395.81;;;19.55;82.33
6024;BME280;3040;42.654;23.296;2023-06-04T01:41:39;94400.03;;;19.56;81.89
6024;BME280;3040;42.654;23.296;2023-06-04T01:44:07;94391.59;;;19.50;82.10
6024;BME280;3040;42.654;23.296;2023-06-04T01:46:34;94402.34;;;19.54;82.18
6024;BME280;3040;42.654;23.296;2023-06-04T01:49:01;94398.50;;;19.55;82.37
6024;BME280;3040;42.654;23.296;2023-06-04T01:51:28;94396.97;;;19.50;82.31
6024;BME280;3040;42.654;23.296;2023-06-04T01:53:54;94400.09;;;19.45;83.19
6024;BME280;3040;42.654;23.296;2023-06-04T01:56:21;94404.28;;;19.36;83.86
6024;BME280;3040;42.654;23.296;2023-06-04T01:58:48;94399.31;;;19.20;84.50
6024;BME280;3040;42.654;23.296;2023-06-04T02:01:16;94406.63;;;19.05;85.16
6024;BME280;3040;42.654;23.296;2023-06-04T02:03:45;94404.75;;;18.85;86.41
6024;BME280;3040;42.654;23.296;2023-06-04T02:06:12;94402.81;;;18.92;86.33
6024;BME280;3040;42.654;23.296;2023-06-04T02:08:39;94410.91;;;18.92;86.22
6024;BME280;3040;42.654;23.296;2023-06-04T02:11:07;94408.59;;;18.73;86.82
6024;BME280;3040;42.654;23.296;2023-06-04T02:13:34;94410.09;;;18.63;87.79
6024;BME280;3040;42.654;23.296;2023-06-04T02:16:01;94404.22;;;18.15;89.59
6024;BME280;3040;42.654;23.296;2023-06-04T02:18:29;94409.78;;;17.64;90.96
6024;BME280;3040;42.654;23.296;2023-06-04T02:20:56;94410.69;;;17.24;92.86
6024;BME280;3040;42.654;23.296;2023-06-04T02:23:23;94412.78;;;17.52;92.77
6024;BME280;3040;42.654;23.296;2023-06-04T02:25:50;94403.97;;;17.59;92.14
6024;BME280;3040;42.654;23.296;2023-06-04T02:28:17;94423.69;;;17.80;91.03
6024;BME280;3040;42.654;23.296;2023-06-04T02:30:44;94428.38;;;17.98;90.05
6024;BME280;3040;42.654;23.296;2023-06-04T02:33:12;94431.50;;;18.10;89.01
6024;BME280;3040;42.654;23.296;2023-06-04T02:35:40;94425.38;;;18.20;88.28
6024;BME280;3040;42.654;23.296;2023-06-04T02:38:07;94441.56;;;18.35;87.54
6024;BME280;3040;42.654;23.296;2023-06-04T02:40:34;94431.59;;;18.46;86.79
6024;BME280;3040;42.654;23.296;2023-06-04T02:43:01;94440.50;;;18.57;86.03
6024;BME280;3040;42.654;23.296;2023-06-04T02:45:27;94434.34;;;18.60;85.43
6024;BME280;3040;42.654;23.296;2023-06-04T02:47:54;94433.59;;;18.66;85.37
6024;BME280;3040;42.654;23.296;2023-06-04T02:50:21;94411.59;;;18.54;85.00
6024;BME280;3040;42.654;23.296;2023-06-04T02:52:49;94445.53;;;18.80;84.97
6024;BME280;3040;42.654;23.296;2023-06-04T02:55:16;94444.38;;;18.84;84.29
6024;BME280;3040;42.654;23.296;2023-06-04T02:57:43;94452.09;;;18.89;84.46
6024;BME280;3040;42.654;23.296;2023-06-04T03:00:11;94449.78;;;18.91;83.97
6024;BME280;3040;42.654;23.296;2023-06-04T03:02:40;94318.44;;;18.03;83.36
6024;BME280;3040;42.654;23.296;2023-06-04T03:05:08;94455.56;;;19.00;82.67
6024;BME280;3040;42.654;23.296;2023-06-04T03:07:36;94452.47;;;19.05;82.95
6024;BME280;3040;42.654;23.296;2023-06-04T03:10:05;94451.69;;;19.12;82.53
6024;BME280;3040;42.654;23.296;2023-06-04T03:12:32;94454.00;;;19.14;82.76
6024;BME280;3040;42.654;23.296;2023-06-04T03:14:59;94445.53;;;19.11;82.58
6024;BME280;3040;42.654;23.296;2023-06-04T03:17:26;94454.41;;;19.16;82.86
6024;BME280;3040;42.654;23.296;2023-06-04T03:19:53;94454.00;;;19.14;82.85
6024;BME280;3040;42.654;23.296;2023-06-04T03:22:21;94420.13;;;18.91;83.12
6024;BME280;3040;42.654;23.296;2023-06-04T03:24:48;94454.41;;;19.12;82.95
6024;BME280;3040;42.654;23.296;2023-06-04T03:27:16;94456.72;;;19.14;83.26
6024;BME280;3040;42.654;23.296;2023-06-04T03:29:43;94402.03;;;18.74;83.39
6024;BME280;3040;42.654;23.296;2023-06-04T03:32:11;94467.13;;;19.08;83.30
6024;BME280;3040;42.654;23.296;2023-06-04T03:34:38;94471.34;;;19.05;83.56
6024;BME280;3040;42.654;23.296;2023-06-04T03:37:06;94472.53;;;19.04;83.74
6024;BME280;3040;42.654;23.296;2023-06-04T03:39:32;94477.91;;;19.04;83.22
6024;BME280;3040;42.654;23.296;2023-06-04T03:41:59;94477.13;;;19.00;83.57
6024;BME280;3040;42.654;23.296;2023-06-04T03:44:28;94467.50;;;18.92;84.06
6024;BME280;3040;42.654;23.296;2023-06-04T03:46:55;94468.25;;;18.93;84.16
6024;BME280;3040;42.654;23.296;2023-06-04T03:49:21;94472.88;;;18.89;84.13
6024;BME280;3040;42.654;23.296;2023-06-04T03:51:48;94477.88;;;18.80;84.04
6024;BME280;3040;42.654;23.296;2023-06-04T03:54:15;94484.41;;;18.79;84.32
6024;BME280;3040;42.654;23.296;2023-06-04T03:56:44;94480.97;;;18.85;84.73
6024;BME280;3040;42.654;23.296;2023-06-04T03:59:11;94482.50;;;18.79;84.87
6024;BME280;3040;42.654;23.296;2023-06-04T04:01:39;94477.50;;;18.74;85.05
6024;BME280;3040;42.654;23.296;2023-06-04T04:04:06;94480.94;;;18.78;85.30
6024;BME280;3040;42.654;23.296;2023-06-04T04:06:32;94470.91;;;18.75;85.59
6024;BME280;3040;42.654;23.296;2023-06-04T04:09:01;94484.00;;;18.59;85.50
6024;BME280;3040;42.654;23.296;2023-06-04T04:11:28;94489.28;;;18.38;87.54
6024;BME280;3040;42.654;23.296;2023-06-04T04:13:56;94481.59;;;18.40;87.32
6024;BME280;3040;42.654;23.296;2023-06-04T04:16:23;94490.88;;;18.49;87.82
6024;BME280;3040;42.654;23.296;2023-06-04T04:18:51;94492.06;;;18.59;87.69
6024;BME280;3040;42.654;23.296;2023-06-04T04:21:18;94495.47;;;18.49;87.11
6024;BME280;3040;42.654;23.296;2023-06-04T04:23:46;94488.00;;;18.03;89.02
6024;BME280;3040;42.654;23.296;2023-06-04T04:26:13;94496.78;;;17.93;90.47
6024;BME280;3040;42.654;23.296;2023-06-04T04:28:42;94492.97;;;17.94;91.61
6024;BME280;3040;42.654;23.296;2023-06-04T04:31:08;94500.63;;;17.92;90.48
6024;BME280;3040;42.654;23.296;2023-06-04T04:33:36;94490.69;;;18.00;91.19
6024;BME280;3040;42.654;23.296;2023-06-04T04:36:06;94494.22;;;18.21;90.59
6024;BME280;3040;42.654;23.296;2023-06-04T04:38:37;94487.53;;;17.83;91.07
6024;BME280;3040;42.654;23.296;2023-06-04T04:41:05;94499.63;;;17.56;92.37
6024;BME280;3040;42.654;23.296;2023-06-04T04:43:34;94498.63;;;17.78;92.72
6024;BME280;3040;42.654;23.296;2023-06-04T04:46:01;94452.09;;;17.71;91.81
6024;BME280;3040;42.654;23.296;2023-06-04T04:48:28;94367.41;;;17.43;91.07
6024;BME280;3040;42.654;23.296;2023-06-04T04:50:55;94487.75;;;18.37;89.79
6024;BME280;3040;42.654;23.296;2023-06-04T04:53:23;94495.84;;;18.51;88.71
6024;BME280;3040;42.654;23.296;2023-06-04T04:55:50;94499.00;;;18.60;87.38
6024;BME280;3040;42.654;23.296;2023-06-04T04:58:17;94504.72;;;18.51;88.00
6024;BME280;3040;42.654;23.296;2023-06-04T05:00:44;94494.34;;;18.50;87.86
6024;BME280;3040;42.654;23.296;2023-06-04T05:03:11;94492.41;;;18.54;87.38
6024;BME280;3040;42.654;23.296;2023-06-04T05:05:38;94505.84;;;18.47;87.27
6024;BME280;3040;42.654;23.296;2023-06-04T05:08:05;94507.09;;;18.56;86.36
6024;BME280;3040;42.654;23.296;2023-06-04T05:10:33;94498.25;;;18.81;86.52
6024;BME280;3040;42.654;23.296;2023-06-04T05:13:01;94503.69;;;18.95;86.30
6024;BME280;3040;42.654;23.296;2023-06-04T05:15:30;94507.94;;;19.06;85.12
6024;BME280;3040;42.654;23.296;2023-06-04T05:17:57;94498.69;;;19.15;84.58
6024;BME280;3040;42.654;23.296;2023-06-04T05:20:26;94491.00;;;19.24;84.21
6024;BME280;3040;42.654;23.296;2023-06-04T05:22:52;94516.41;;;19.44;84.32
6024;BME280;3040;42.654;23.296;2023-06-04T05:25:20;94509.50;;;19.54;82.67
6024;BME280;3040;42.654;23.296;2023-06-04T05:27:49;94517.59;;;19.64;82.17
6024;BME280;3040;42.654;23.296;2023-06-04T05:30:16;94513.34;;;19.63;81.28
6024;BME280;3040;42.654;23.296;2023-06-04T05:32:43;94487.91;;;19.36;80.51
6024;BME280;3040;42.654;23.296;2023-06-04T05:35:10;94511.03;;;19.44;80.44
6024;BME280;3040;42.654;23.296;2023-06-04T05:37:38;94503.72;;;19.41;80.70
6024;BME280;3040;42.654;23.296;2023-06-04T05:40:07;94508.75;;;19.46;80.13
6024;BME280;3040;42.654;23.296;2023-06-04T05:42:34;94510.25;;;19.15;80.81
6024;BME280;3040;42.654;23.296;2023-06-04T05:45:03;94524.88;;;19.03;82.21
6024;BME280;3040;42.654;23.296;2023-06-04T05:47:30;94528.34;;;19.11;82.26
6024;BME280;3040;42.654;23.296;2023-06-04T05:49:57;94519.06;;;18.80;82.41
6024;BME280;3040;42.654;23.296;2023-06-04T05:52:24;94539.09;;;18.90;82.00
6024;BME280;3040;42.654;23.296;2023-06-04T05:54:51;94529.50;;;18.92;82.72
6024;BME280;3040;42.654;23.296;2023-06-04T05:57:18;94544.13;;;18.98;83.87
6024;BME280;3040;42.654;23.296;2023-06-04T05:59:45;94537.16;;;18.87;84.02
6024;BME280;3040;42.654;23.296;2023-06-04T06:02:13;94453.88;;;18.28;83.19
6024;BME280;3040;42.654;23.296;2023-06-04T06:04:40;94532.53;;;18.84;84.16
6024;BME280;3040;42.654;23.296;2023-06-04T06:07:07;94551.84;;;19.14;84.58
6024;BME280;3040;42.654;23.296;2023-06-04T06:09:33;94546.44;;;19.18;84.65
6024;BME280;3040;42.654;23.296;2023-06-04T06:12:01;94543.38;;;19.19;83.86
6024;BME280;3040;42.654;23.296;2023-06-04T06:14:28;94553.41;;;19.40;83.52
6024;BME280;3040;42.654;23.296;2023-06-04T06:16:55;94554.94;;;19.27;82.15
6024;BME280;3040;42.654;23.296;2023-06-04T06:19:23;94551.50;;;19.23;80.97
6024;BME280;3040;42.654;23.296;2023-06-04T06:21:50;94550.31;;;19.24;81.36
6024;BME280;3040;42.654;23.296;2023-06-04T06:24:17;94550.31;;;19.27;81.73
6024;BME280;3040;42.654;23.296;2023-06-04T06:26:43;94547.25;;;19.29;82.55
6024;BME280;3040;42.654;23.296;2023-06-04T06:29:10;94544.94;;;19.17;81.78
6024;BME280;3040;42.654;23.296;2023-06-04T06:31:37;94514.06;;;18.82;82.39
6024;BME280;3040;42.654;23.296;2023-06-04T06:34:04;94551.75;;;18.75;82.88
6024;BME280;3040;42.654;23.296;2023-06-04T06:36:32;94547.16;;;18.72;82.95
6024;BME280;3040;42.654;23.296;2023-06-04T06:38:59;94531.78;;;18.83;83.29
6024;BME280;3040;42.654;23.296;2023-06-04T06:41:26;94553.34;;;18.94;80.96
6024;BME280;3040;42.654;23.296;2023-06-04T06:43:55;94558.78;;;19.15;81.71
6024;BME280;3040;42.654;23.296;2023-06-04T06:46:22;94552.25;;;19.30;81.21
6024;BME280;3040;42.654;23.296;2023-06-04T06:48:48;94526.06;;;19.20;79.94
6024;BME280;3040;42.654;23.296;2023-06-04T06:51:15;94553.44;;;19.68;79.68
6024;BME280;3040;42.654;23.296;2023-06-04T06:53:44;94559.59;;;19.94;78.70
6024;BME280;3040;42.654;23.296;2023-06-04T06:56:11;94560.31;;;20.05;77.43
6024;BME280;3040;42.654;23.296;2023-06-04T06:58:37;94563.78;;;20.09;76.84
6024;BME280;3040;42.654;23.296;2023-06-04T07:01:04;94563.38;;;20.17;77.20
6024;BME280;3040;42.654;23.296;2023-06-04T07:03:31;94563.38;;;20.21;76.99
6024;BME280;3040;42.654;23.296;2023-06-04T07:05:58;94568.78;;;20.35;76.40
6024;BME280;3040;42.654;23.296;2023-06-04T07:08:25;94567.22;;;20.30;75.76
6024;BME280;3040;42.654;23.296;2023-06-04T07:10:55;94428.59;;;19.29;75.44
6024;BME280;3040;42.654;23.296;2023-06-04T07:13:22;94571.09;;;20.22;77.01
6024;BME280;3040;42.654;23.296;2023-06-04T07:15:48;94579.53;;;20.49;75.75
6024;BME280;3040;42.654;23.296;2023-06-04T07:18:15;94582.19;;;20.56;74.68
6024;BME280;3040;42.654;23.296;2023-06-04T07:20:42;94587.22;;;20.51;74.98
6024;BME280;3040;42.654;23.296;2023-06-04T07:23:09;94591.03;;;20.71;75.29
6024;BME280;3040;42.654;23.296;2023-06-04T07:25:36;94575.53;;;20.82;74.69
6024;BME280;3040;42.654;23.296;2023-06-04T07:28:04;94595.53;;;20.99;73.31
6024;BME280;3040;42.654;23.296;2023-06-04T07:30:31;94593.25;;;20.94;72.45
6024;BME280;3040;42.654;23.296;2023-06-04T07:32:58;94599.38;;;20.98;72.85
6024;BME280;3040;42.654;23.296;2023-06-04T07:35:25;94583.69;;;20.71;74.08
6024;BME280;3040;42.654;23.296;2023-06-04T07:37:52;94594.06;;;20.80;74.20
6024;BME280;3040;42.654;23.296;2023-06-04T07:40:19;94599.75;;;21.07;73.35
6024;BME280;3040;42.654;23.296;2023-06-04T07:42:47;94593.53;;;21.17;73.05
6024;BME280;3040;42.654;23.296;2023-06-04T07:45:16;94604.59;;;21.40;73.24
6024;BME280;3040;42.654;23.296;2023-06-04T07:47:43;94613.31;;;21.66;71.37
6024;BME280;3040;42.654;23.296;2023-06-04T07:50:10;94608.91;;;21.86;71.26
6024;BME280;3040;42.654;23.296;2023-06-04T07:52:37;94601.88;;;21.92;70.38
6024;BME280;3040;42.654;23.296;2023-06-04T07:55:04;94611.75;;;22.16;70.35
6024;BME280;3040;42.654;23.296;2023-06-04T07:57:32;94610.59;;;22.17;69.68
6024;BME280;3040;42.654;23.296;2023-06-04T07:59:58;94618.66;;;21.73;70.50
6024;BME280;3040;42.654;23.296;2023-06-04T08:02:28;94623.00;;;21.60;71.51
6024;BME280;3040;42.654;23.296;2023-06-04T08:04:55;94609.09;;;21.61;71.67
6024;BME280;3040;42.654;23.296;2023-06-04T08:07:22;94618.56;;;21.87;71.60
6024;BME280;3040;42.654;23.296;2023-06-04T08:09:49;94612.72;;;21.92;70.64
6024;BME280;3040;42.654;23.296;2023-06-04T08:12:16;94612.69;;;21.96;71.09
6024;BME280;3040;42.654;23.296;2023-06-04T08:14:42;94588.84;;;21.80;71.58
6024;BME280;3040;42.654;23.296;2023-06-04T08:17:10;94612.59;;;22.10;69.76
6024;BME280;3040;42.654;23.296;2023-06-04T08:19:38;94614.72;;;22.29;69.71
6024;BME280;3040;42.654;23.296;2023-06-04T08:22:05;94616.81;;;22.52;69.73
6024;BME280;3040;42.654;23.296;2023-06-04T08:24:32;94630.22;;;22.66;68.08
6024;BME280;3040;42.654;23.296;2023-06-04T08:26:59;94625.81;;;22.79;67.58
6024;BME280;3040;42.654;23.296;2023-06-04T08:29:25;94617.59;;;22.90;67.60
6024;BME280;3040;42.654;23.296;2023-06-04T08:31:52;94617.91;;;22.95;67.71
6024;BME280;3040;42.654;23.296;2023-06-04T08:34:19;94598.75;;;22.76;64.15
6024;BME280;3040;42.654;23.296;2023-06-04T08:36:47;94630.84;;;22.43;65.57
6024;BME280;3040;42.654;23.296;2023-06-04T08:39:14;94627.53;;;22.25;66.61
6024;BME280;3040;42.654;23.296;2023-06-04T08:41:43;94626.59;;;22.01;68.02
6024;BME280;3040;42.654;23.296;2023-06-04T08:44:11;94578.19;;;21.55;68.24
6024;BME280;3040;42.654;23.296;2023-06-04T08:46:39;94579.19;;;21.27;67.91
6024;BME280;3040;42.654;23.296;2023-06-04T08:49:07;94637.16;;;21.26;68.94
6024;BME280;3040;42.654;23.296;2023-06-04T08:51:35;94643.31;;;21.30;68.13
6024;BME280;3040;42.654;23.296;2023-06-04T08:54:05;94643.72;;;21.25;69.70
6024;BME280;3040;42.654;23.296;2023-06-04T08:56:33;94648.97;;;21.53;68.46
6024;BME280;3040;42.654;23.296;2023-06-04T08:59:02;94645.56;;;21.42;68.89
6024;BME280;3040;42.654;23.296;2023-06-04T09:01:30;94645.50;;;21.49;69.97
6024;BME280;3040;42.654;23.296;2023-06-04T09:03:59;94656.09;;;21.85;68.75
6024;BME280;3040;42.654;23.296;2023-06-04T09:06:28;94672.44;;;21.71;67.76
6024;BME280;3040;42.654;23.296;2023-06-04T09:08:56;94656.91;;;21.82;67.70
6024;BME280;3040;42.654;23.296;2023-06-04T09:11:27;94644.88;;;21.83;68.33
6024;BME280;3040;42.654;23.296;2023-06-04T09:13:59;94574.94;;;21.23;67.17
6024;BME280;3040;42.654;23.296;2023-06-04T09:16:27;94657.03;;;21.61;66.79
6024;BME280;3040;42.654;23.296;2023-06-04T09:19:02;94630.13;;;21.36;67.42
6024;BME280;3040;42.654;23.296;2023-06-04T09:21:29;94660.13;;;21.63;66.63
6024;BME280;3040;42.654;23.296;2023-06-04T09:23:57;94660.13;;;21.63;66.97
6024;BME280;3040;42.654;23.296;2023-06-04T09:26:26;94650.78;;;21.71;66.49
6024;BME280;3040;42.654;23.296;2023-06-04T09:28:52;94653.78;;;21.87;66.81
6024;BME280;3040;42.654;23.296;2023-06-04T09:31:22;94658.97;;;22.15;65.79
6024;BME280;3040;42.654;23.296;2023-06-04T09:33:52;94655.28;;;22.40;64.37
6024;BME280;3040;42.654;23.296;2023-06-04T09:36:19;94656.84;;;22.37;64.89
6024;BME280;3040;42.654;23.296;2023-06-04T09:38:45;94664.19;;;22.40;64.19
6024;BME280;3040;42.654;23.296;2023-06-04T09:41:13;94635.09;;;22.44;64.96
6024;BME280;3040;42.654;23.296;2023-06-04T09:43:42;94661.25;;;22.61;64.64
6024;BME280;3040;42.654;23.296;2023-06-04T09:46:12;94649.69;;;22.91;63.96
6024;BME280;3040;42.654;23.296;2023-06-04T09:48:40;94632.00;;;22.83;63.02
6024;BME280;3040;42.654;23.296;2023-06-04T09:51:09;94651.63;;;22.94;64.33
6024;BME280;3040;42.654;23.296;2023-06-04T09:53:37;94642.84;;;23.13;63.13
6024;BME280;3040;42.654;23.296;2023-06-04T09:56:05;94652.94;;;23.43;61.74
6024;BME280;3040;42.654;23.296;2023-06-04T09:58:34;94652.53;;;23.99;62.09
6024;BME280;3040;42.654;23.296;2023-06-04T10:01:04;94629.94;;;24.48;60.62
6024;BME280;3040;42.654;23.296;2023-06-04T10:03:32;94641.28;;;24.86;57.75
6024;BME280;3040;42.654;23.296;2023-06-04T10:06:03;94625.63;;;24.94;57.18
6024;BME280;3040;42.654;23.296;2023-06-04T10:08:31;94642.22;;;25.19;55.54
6024;BME280;3040;42.654;23.296;2023-06-04T10:11:00;94642.88;;;24.84;57.28
6024;BME280;3040;42.654;23.296;2023-06-04T10:13:29;94647.09;;;25.08;57.20
6024;BME280;3040;42.654;23.296;2023-06-04T10:15:57;94636.91;;;25.12;56.10
6024;BME280;3040;42.654;23.296;2023-06-04T10:18:27;94616.69;;;24.30;56.56
6024;BME280;3040;42.654;23.296;2023-06-04T10:20:55;94635.97;;;23.89;58.74
6024;BME280;3040;42.654;23.296;2023-06-04T10:23:23;94634.31;;;23.96;60.68
6024;BME280;3040;42.654;23.296;2023-06-04T10:25:51;94639.78;;;24.19;59.29
6024;BME280;3040;42.654;23.296;2023-06-04T10:28:20;94611.78;;;23.45;60.06
6024;BME280;3040;42.654;23.296;2023-06-04T10:30:48;94633.72;;;23.31;60.79
6024;BME280;3040;42.654;23.296;2023-06-04T10:33:17;94639.09;;;22.70;62.97
6024;BME280;3040;42.654;23.296;2023-06-04T10:35:47;94638.19;;;22.43;63.40
6024;BME280;3040;42.654;23.296;2023-06-04T10:38:14;94640.88;;;22.46;64.66
6024;BME280;3040;42.654;23.296;2023-06-04T10:40:42;94628.16;;;22.40;64.22
6024;BME280;3040;42.654;23.296;2023-06-04T10:43:10;94636.69;;;22.42;63.55
6024;BME280;3040;42.654;23.296;2023-06-04T10:45:37;94619.22;;;22.05;64.58
6024;BME280;3040;42.654;23.296;2023-06-04T10:48:06;94614.97;;;22.04;64.18
6024;BME280;3040;42.654;23.296;2023-06-04T10:50:33;94638.47;;;22.14;64.39
6024;BME280;3040;42.654;23.296;2023-06-04T10:53:02;94614.94;;;21.52;65.79
6024;BME280;3040;42.654;23.296;2023-06-04T10:55:29;94637.72;;;21.59;66.72
6024;BME280;3040;42.654;23.296;2023-06-04T10:57:57;94641.53;;;21.65;67.15
6024;BME280;3040;42.654;23.296;2023-06-04T11:00:34;94602.22;;;21.46;66.20
6024;BME280;3040;42.654;23.296;2023-06-04T11:03:01;94632.19;;;21.73;66.27
6024;BME280;3040;42.654;23.296;2023-06-04T11:05:34;94628.59;;;21.90;66.26
6024;BME280;3040;42.654;23.296;2023-06-04T11:08:03;94620.44;;;21.97;67.18
6024;BME280;3040;42.654;23.296;2023-06-04T11:10:34;94638.06;;;22.16;65.84
6024;BME280;3040;42.654;23.296;2023-06-04T11:13:02;94624.03;;;22.24;66.09
6024;BME280;3040;42.654;23.296;2023-06-04T11:15:40;94639.28;;;22.49;66.23
6024;BME280;3040;42.654;23.296;2023-06-04T11:18:07;94643.47;;;22.57;65.96
6024;BME280;3040;42.654;23.296;2023-06-04T11:20:34;94630.38;;;22.52;65.70
6024;BME280;3040;42.654;23.296;2023-06-04T11:23:02;94626.75;;;22.62;65.69
6024;BME280;3040;42.654;23.296;2023-06-04T11:25:31;94618.94;;;22.71;65.63
6024;BME280;3040;42.654;23.296;2023-06-04T11:27:59;94637.59;;;22.99;65.27
6024;BME280;3040;42.654;23.296;2023-06-04T11:30:27;94631.63;;;23.11;64.17
6024;BME280;3040;42.654;23.296;2023-06-04T11:33:00;94633.97;;;23.09;64.10
6024;BME280;3040;42.654;23.296;2023-06-04T11:35:28;94617.34;;;23.07;64.46
6024;BME280;3040;42.654;23.296;2023-06-04T11:37:56;94635.03;;;22.85;64.67
6024;BME280;3040;42.654;23.296;2023-06-04T11:40:25;94634.41;;;22.74;64.21
6024;BME280;3040;42.654;23.296;2023-06-04T11:42:53;94639.28;;;22.49;65.17
6024;BME280;3040;42.654;23.296;2023-06-04T11:45:21;94642.31;;;22.17;66.04
6024;BME280;3040;42.654;23.296;2023-06-04T11:47:51;94630.56;;;22.30;67.30
6024;BME280;3040;42.654;23.296;2023-06-04T11:50:18;94632.94;;;22.28;66.80
6024;BME280;3040;42.654;23.296;2023-06-04T11:52:45;94639.69;;;22.06;66.70
6024;BME280;3040;42.654;23.296;2023-06-04T11:55:14;94604.97;;;21.94;67.68
6024;BME280;3040;42.654;23.296;2023-06-04T11:57:44;94637.41;;;22.01;67.81
6024;BME280;3040;42.654;23.296;2023-06-04T12:00:11;94635.38;;;22.12;68.19
6024;BME280;3040;42.654;23.296;2023-06-04T12:02:48;94630.34;;;22.14;68.97
6024;BME280;3040;42.654;23.296;2023-06-04T12:05:16;94645.06;;;22.13;67.68
6024;BME280;3040;42.654;23.296;2023-06-04T12:07:45;94642.06;;;22.04;68.35
6024;BME280;3040;42.654;23.296;2023-06-04T12:10:13;94638.69;;;21.86;68.69
6024;BME280;3040;42.654;23.296;2023-06-04T12:12:40;94644.28;;;21.61;70.76
6024;BME280;3040;42.654;23.296;2023-06-04T12:15:09;94655.22;;;21.43;73.20
6024;BME280;3040;42.654;23.296;2023-06-04T12:17:37;94616.31;;;21.16;75.47
6024;BME280;3040;42.654;23.296;2023-06-04T12:20:05;94651.88;;;21.11;75.64
6024;BME280;3040;42.654;23.296;2023-06-04T12:22:32;94640.28;;;21.14;78.41
6024;BME280;3040;42.654;23.296;2023-06-04T12:24:59;94604.88;;;20.84;78.84
6024;BME280;3040;42.654;23.296;2023-06-04T12:27:28;94638.72;;;21.20;78.11
6024;BME280;3040;42.654;23.296;2023-06-04T12:29:56;94641.06;;;21.22;79.96
6024;BME280;3040;42.654;23.296;2023-06-04T12:32:25;94644.53;;;21.19;78.98
6024;BME280;3040;42.654;23.296;2023-06-04T12:34:53;94637.19;;;21.12;78.40
6024;BME280;3040;42.654;23.296;2023-06-04T12:37:20;94638.34;;;21.18;80.50
6024;BME280;3040;42.654;23.296;2023-06-04T12:39:47;94633.75;;;21.04;78.56
6024;BME280;3040;42.654;23.296;2023-06-04T12:42:14;94632.66;;;20.88;79.07
6024;BME280;3040;42.654;23.296;2023-06-04T12:44:41;94597.25;;;20.61;79.18
6024;BME280;3040;42.654;23.296;2023-06-04T12:47:08;94633.47;;;20.85;79.10
6024;BME280;3040;42.654;23.296;2023-06-04T12:49:36;94633.84;;;20.80;78.50
6024;BME280;3040;42.654;23.296;2023-06-04T12:52:03;94631.97;;;20.69;79.12
6024;BME280;3040;42.654;23.296;2023-06-04T12:54:30;94633.53;;;20.63;79.59
6024;BME280;3040;42.654;23.296;2023-06-04T12:56:58;94643.22;;;20.54;79.13
6024;BME280;3040;42.654;23.296;2023-06-04T12:59:26;94636.69;;;20.30;80.75
6024;BME280;3040;42.654;23.296;2023-06-04T13:01:53;94633.59;;;20.28;81.43
6024;BME280;3040;42.654;23.296;2023-06-04T13:04:20;94649.03;;;20.13;82.72
6024;BME280;3040;42.654;23.296;2023-06-04T13:06:50;94642.47;;;20.14;83.13
6024;BME280;3040;42.654;23.296;2023-06-04T13:09:20;94634.38;;;20.18;85.26
6024;BME280;3040;42.654;23.296;2023-06-04T13:11:48;94633.59;;;20.39;85.55